Time;durP1;ratioP1;P1;durP2;ratioP2;P2;SDS_P1;SDS_P2;PMS_P1;PMS_P2;Temp;Humidity;BMP_temperature;BMP_pressure;BME280_temperature;BME280_humidity;BME280_pressure;Samples;Min_cycle;Max_cycle;Signal;HPM_P1;HPM_P2
2022/03/25 00:00:41;;;;;;;;;22.33;21.33;;;;;22.07;35.92;101962.12;110173;1264;18694;-50
2022/03/25 00:03:10;;;;;;;;;27.33;25.33;;;;;22.07;35.70;101960.46;110167;1264;18283;-51
2022/03/25 00:05:37;;;;;;;;;23.33;22.00;;;;;22.05;35.71;101955.27;110102;1265;20285;-51
2022/03/25 00:08:05;;;;;;;;;22.67;22.00;;;;;22.08;35.98;101962.00;110169;1265;18752;-50
2022/03/25 00:10:33;;;;;;;;;24.00;22.00;;;;;22.06;35.93;101961.67;110205;1264;22028;-48
2022/03/25 00:13:00;;;;;;;;;25.33;21.67;;;;;22.08;35.69;101963.66;110151;1264;23828;-50
2022/03/25 00:15:27;;;;;;;;;26.00;22.00;;;;;22.07;35.55;101959.56;110142;1264;18794;-49
2022/03/25 00:17:54;;;;;;;;;23.00;22.00;;;;;22.08;35.86;101956.57;110164;1265;19457;-50
2022/03/25 00:20:22;;;;;;;;;24.33;22.00;;;;;22.09;35.85;101952.87;110178;1264;18800;-48
2022/03/25 00:22:49;;;;;;;;;27.67;23.33;;;;;22.08;35.77;101953.77;110139;1267;18829;-49
2022/03/25 00:25:17;;;;;;;;;23.00;21.33;;;;;22.07;35.76;101954.27;110189;1267;18332;-50
2022/03/25 00:27:44;;;;;;;;;23.33;21.33;;;;;22.08;35.76;101957.80;110138;1267;19245;-49
2022/03/25 00:30:11;;;;;;;;;29.00;25.50;;;;;22.07;35.57;101954.82;110142;1266;18749;-48
2022/03/25 00:32:40;;;;;;;;;22.33;20.67;;;;;22.06;35.70;101955.80;110140;1267;18569;-49
2022/03/25 00:35:07;;;;;;;;;24.33;23.00;;;;;22.05;35.68;101951.24;110168;1265;18862;-49
2022/03/25 00:37:35;;;;;;;;;22.67;21.67;;;;;22.05;35.75;101956.27;110140;1265;23688;-48
2022/03/25 00:40:02;;;;;;;;;21.00;20.00;;;;;22.04;35.74;101952.54;110170;1264;19050;-48
2022/03/25 00:42:30;;;;;;;;;22.00;21.50;;;;;22.05;35.81;101958.65;110064;1265;20811;-49
2022/03/25 00:44:58;;;;;;;;;26.50;22.00;;;;;22.05;35.76;101956.13;110186;1264;18820;-48
2022/03/25 00:47:25;;;;;;;;;25.67;22.00;;;;;22.04;35.77;101956.23;110176;1264;22146;-49
2022/03/25 00:49:52;;;;;;;;;22.00;21.50;;;;;22.05;35.78;101958.10;110155;1264;18803;-49
2022/03/25 00:52:19;;;;;;;;;26.67;24.33;;;;;22.05;35.72;101958.11;110207;1265;19009;-47
2022/03/25 00:54:47;;;;;;;;;20.33;20.33;;;;;22.04;35.73;101956.62;110217;1265;18233;-48
2022/03/25 00:57:14;;;;;;;;;27.00;23.00;;;;;22.03;35.78;101949.96;110179;1264;22193;-49
2022/03/25 00:59:41;;;;;;;;;22.00;21.00;;;;;22.03;36.01;101953.82;110195;1265;18856;-49
2022/03/25 01:02:09;;;;;;;;;31.67;27.00;;;;;22.04;35.79;101953.33;110243;1264;18261;-48
2022/03/25 01:04:36;;;;;;;;;22.50;21.50;;;;;22.04;35.62;101952.73;110209;1265;18694;-49
2022/03/25 01:07:04;;;;;;;;;22.67;19.67;;;;;22.03;35.69;101947.55;110220;1265;18786;-50
2022/03/25 01:09:31;;;;;;;;;26.67;26.00;;;;;22.04;35.71;101947.67;110192;1265;19090;-49
2022/03/25 01:11:58;;;;;;;;;27.67;23.67;;;;;22.04;35.61;101951.34;110153;1265;19962;-48
2022/03/25 01:14:26;;;;;;;;;26.67;23.33;;;;;22.04;35.66;101948.91;110266;1264;18977;-48
2022/03/25 01:16:53;;;;;;;;;30.67;26.00;;;;;22.02;35.87;101947.13;110236;1264;21704;-49
2022/03/25 01:19:20;;;;;;;;;25.50;22.50;;;;;22.02;35.71;101947.67;110203;1265;18883;-49
2022/03/25 01:21:48;;;;;;;;;26.00;22.33;;;;;22.02;35.69;101944.77;110197;1265;18806;-49
2022/03/25 01:24:15;;;;;;;;;26.33;22.33;;;;;22.02;35.71;101945.86;110191;1264;19452;-50
2022/03/25 01:26:43;;;;;;;;;24.67;22.67;;;;;22.03;35.84;101944.47;110205;1264;19908;-49
2022/03/25 01:29:10;;;;;;;;;26.33;22.33;;;;;22.03;35.69;101948.30;110215;1265;19005;-49
2022/03/25 01:31:38;;;;;;;;;26.00;23.00;;;;;22.02;35.80;101950.91;110249;1265;19504;-50
2022/03/25 01:34:05;;;;;;;;;20.67;20.33;;;;;22.03;35.81;101949.55;110218;1264;20575;-51
2022/03/25 01:36:32;;;;;;;;;25.67;23.00;;;;;22.02;35.71;101944.46;110160;1265;18824;-48
2022/03/25 01:38:59;;;;;;;;;23.67;21.00;;;;;22.01;35.81;101943.95;110225;1265;23280;-49
2022/03/25 01:41:27;;;;;;;;;26.00;22.00;;;;;22.03;35.66;101944.33;110214;1264;18907;-53
2022/03/25 01:43:54;;;;;;;;;26.50;22.00;;;;;22.03;35.63;101939.45;110181;1265;19334;-47
2022/03/25 01:46:22;;;;;;;;;28.67;26.00;;;;;22.02;35.62;101939.34;110188;1264;18224;-49
2022/03/25 01:48:49;;;;;;;;;21.00;21.00;;;;;22.03;35.77;101942.90;110212;1264;20562;-52
2022/03/25 01:51:17;;;;;;;;;25.00;21.33;;;;;22.01;35.52;101935.27;110165;1265;18826;-49
2022/03/25 01:53:44;;;;;;;;;24.67;23.67;;;;;22.00;35.69;101937.92;110219;1264;18503;-50
2022/03/25 01:56:12;;;;;;;;;25.33;22.67;;;;;22.00;35.79;101939.29;110206;1264;18709;-49
2022/03/25 01:58:39;;;;;;;;;22.67;22.00;;;;;21.98;35.63;101935.68;110190;1264;18724;-52
2022/03/25 02:01:07;;;;;;;;;26.67;22.00;;;;;22.00;35.68;101932.83;110204;1265;18220;-48
2022/03/25 02:03:34;;;;;;;;;21.67;19.67;;;;;22.01;35.54;101934.69;110198;1264;21872;-48
2022/03/25 02:06:01;;;;;;;;;23.00;21.00;;;;;22.00;35.92;101936.05;110199;1264;18732;-48
2022/03/25 02:08:28;;;;;;;;;24.50;21.00;;;;;22.00;35.65;101930.55;110170;1264;18856;-48
2022/03/25 02:10:56;;;;;;;;;25.00;22.00;;;;;22.00;35.56;101934.40;110189;1265;18775;-48
2022/03/25 02:13:23;;;;;;;;;24.33;22.00;;;;;22.00;35.77;101930.82;110213;1265;19213;-48
2022/03/25 02:15:50;;;;;;;;;25.00;21.00;;;;;22.00;35.70;101935.30;110178;1264;22046;-52
2022/03/25 02:18:19;;;;;;;;;21.00;19.33;;;;;22.02;35.64;101937.88;110096;1265;18784;-50
2022/03/25 02:20:46;;;;;;;;;19.67;19.00;;;;;22.01;35.61;101941.45;110104;1265;18811;-49
2022/03/25 02:23:13;;;;;;;;;27.00;23.50;;;;;22.01;35.58;101940.50;110137;1264;18358;-46
2022/03/25 02:25:41;;;;;;;;;26.33;23.33;;;;;21.99;35.63;101936.68;110216;1265;19019;-49
2022/03/25 02:28:08;;;;;;;;;25.33;22.00;;;;;21.99;35.57;101939.07;110236;1264;18861;-48
2022/03/25 02:30:36;;;;;;;;;22.00;22.00;;;;;21.99;35.77;101941.48;110182;1265;18299;-48
2022/03/25 02:33:04;;;;;;;;;25.50;23.50;;;;;22.01;35.62;101945.61;110204;1264;18866;-49
2022/03/25 02:35:31;;;;;;;;;28.67;21.67;;;;;21.99;35.54;101944.86;110199;1265;19315;-49
2022/03/25 02:37:58;;;;;;;;;22.00;21.00;;;;;22.00;35.80;101944.85;110151;1264;18363;-49
2022/03/25 02:40:25;;;;;;;;;29.33;25.33;;;;;22.00;35.80;101944.10;110207;1265;18697;-49
2022/03/25 02:42:53;;;;;;;;;25.00;22.33;;;;;22.00;35.81;101946.25;110189;1264;19005;-49
2022/03/25 02:45:20;;;;;;;;;22.00;21.00;;;;;21.98;35.56;101950.42;110184;1264;22719;-50
2022/03/25 02:47:47;;;;;;;;;22.00;18.67;;;;;21.99;35.82;101952.20;110217;1264;19107;-48
2022/03/25 02:50:15;;;;;;;;;25.33;22.00;;;;;22.00;35.58;101949.89;110176;1265;18765;-48
2022/03/25 02:52:42;;;;;;;;;23.67;23.00;;;;;21.99;35.57;101948.23;110217;1265;18319;-49
2022/03/25 02:55:09;;;;;;;;;27.00;22.33;;;;;21.99;35.84;101948.41;110203;1265;19026;-52
2022/03/25 02:57:36;;;;;;;;;22.50;22.50;;;;;21.98;35.66;101950.80;110178;1265;21100;-49
2022/03/25 03:00:04;;;;;;;;;25.67;21.67;;;;;21.99;35.74;101954.22;110231;1265;18335;-49
2022/03/25 03:02:31;;;;;;;;;25.67;22.67;;;;;21.98;35.81;101949.88;110163;1264;21494;-50
2022/03/25 03:04:59;;;;;;;;;25.50;23.00;;;;;21.98;35.90;101947.93;110182;1264;19130;-49
2022/03/25 03:07:26;;;;;;;;;26.00;21.67;;;;;21.97;35.74;101943.84;110241;1265;18248;-52
2022/03/25 03:09:53;;;;;;;;;26.67;21.67;;;;;21.98;35.77;101947.45;110194;1264;20087;-48
2022/03/25 03:12:20;;;;;;;;;21.33;19.00;;;;;21.98;35.53;101943.22;110226;1265;18995;-49
2022/03/25 03:14:48;;;;;;;;;24.00;22.00;;;;;21.97;35.70;101943.08;110192;1264;18509;-48
2022/03/25 03:17:15;;;;;;;;;25.67;22.33;;;;;21.98;35.73;101939.60;110156;1265;18721;-49
2022/03/25 03:19:42;;;;;;;;;22.00;19.67;;;;;21.97;35.69;101943.29;110282;1263;18772;-50
2022/03/25 03:22:10;;;;;;;;;21.00;21.00;;;;;21.97;35.64;101944.41;110211;1265;18218;-48
2022/03/25 03:24:38;;;;;;;;;29.33;22.67;;;;;21.96;35.77;101947.38;110208;1265;18848;-48
2022/03/25 03:27:05;;;;;;;;;24.33;22.00;;;;;21.96;35.82;101946.11;110228;1264;19210;-48
2022/03/25 03:29:33;;;;;;;;;26.00;23.00;;;;;21.96;35.62;101951.23;110195;1264;18210;-48
2022/03/25 03:32:00;;;;;;;;;22.67;21.00;;;;;21.95;35.70;101948.80;110152;1265;19146;-51
2022/03/25 03:34:27;;;;;;;;;25.00;22.00;;;;;21.95;35.76;101952.94;110145;1265;20313;-49
2022/03/25 03:36:54;;;;;;;;;23.00;21.00;;;;;21.95;35.69;101948.65;110193;1265;18377;-50
2022/03/25 03:39:21;;;;;;;;;24.33;23.33;;;;;21.95;35.64;101950.09;110192;1264;18580;-49
2022/03/25 03:41:49;;;;;;;;;25.00;21.00;;;;;21.95;35.54;101950.30;110193;1265;19022;-49
2022/03/25 03:44:16;;;;;;;;;26.67;23.33;;;;;21.95;35.77;101951.36;110176;1265;18278;-49
2022/03/25 03:46:43;;;;;;;;;25.67;22.00;;;;;21.93;35.59;101950.79;110197;1265;19032;-49
2022/03/25 03:49:10;;;;;;;;;24.33;23.00;;;;;21.94;35.85;101947.45;110230;1265;21469;-49
2022/03/25 03:51:38;;;;;;;;;24.67;21.00;;;;;21.95;35.60;101946.30;110202;1265;21132;-49
2022/03/25 03:54:05;;;;;;;;;26.00;22.00;;;;;21.95;35.68;101940.06;110181;1264;19204;-51
2022/03/25 03:56:33;;;;;;;;;23.33;20.33;;;;;21.94;35.75;101941.80;110197;1264;21444;-50
2022/03/25 03:59:00;;;;;;;;;23.00;21.00;;;;;21.94;35.64;101944.68;110157;1265;18262;-49
2022/03/25 04:01:27;;;;;;;;;24.67;22.00;;;;;21.94;35.78;101944.75;110215;1265;22714;-50
2022/03/25 04:03:54;;;;;;;;;23.50;21.00;;;;;21.93;35.60;101944.09;110231;1264;18896;-50
2022/03/25 04:06:22;;;;;;;;;25.33;22.33;;;;;21.93;35.69;101945.89;110254;1264;19307;-50
2022/03/25 04:08:49;;;;;;;;;21.00;21.00;;;;;21.93;35.60;101938.45;110247;1264;22346;-49
2022/03/25 04:11:16;;;;;;;;;21.00;21.00;;;;;21.92;35.54;101941.05;110187;1264;22200;-48
2022/03/25 04:13:45;;;;;;;;;21.33;18.33;;;;;21.92;35.82;101945.65;110270;1265;18552;-48
2022/03/25 04:16:12;;;;;;;;;26.00;23.33;;;;;21.94;35.72;101940.58;110214;1265;18869;-48
2022/03/25 04:18:39;;;;;;;;;26.00;23.33;;;;;21.92;35.72;101941.46;110191;1264;19202;-49
2022/03/25 04:21:06;;;;;;;;;25.00;23.00;;;;;21.92;35.68;101943.43;110200;1265;18403;-48
2022/03/25 04:23:33;;;;;;;;;23.00;21.33;;;;;21.93;35.58;101944.03;110187;1265;18771;-49
2022/03/25 04:26:02;;;;;;;;;26.50;23.00;;;;;21.92;35.80;101941.40;110122;1265;18732;-48
2022/03/25 04:28:29;;;;;;;;;23.33;21.00;;;;;21.94;35.79;101946.33;110281;1264;18296;-50
2022/03/25 04:30:57;;;;;;;;;23.00;21.67;;;;;21.93;35.56;101942.96;110215;1264;18755;-47
2022/03/25 04:33:24;;;;;;;;;23.50;21.00;;;;;21.91;35.76;101944.05;110224;1265;18779;-48
2022/03/25 04:35:51;;;;;;;;;25.67;23.00;;;;;21.92;35.64;101944.94;110176;1264;18240;-48
2022/03/25 04:38:18;;;;;;;;;22.33;21.33;;;;;21.93;35.65;101947.95;110156;1265;18917;-48
2022/03/25 04:40:45;;;;;;;;;23.00;21.00;;;;;21.93;35.80;101946.61;110178;1265;18812;-52
2022/03/25 04:43:13;;;;;;;;;23.00;21.00;;;;;21.93;35.78;101948.97;110225;1265;18376;-48
2022/03/25 04:45:40;;;;;;;;;23.00;21.00;;;;;21.93;35.80;101948.11;110111;1265;18859;-50
2022/03/25 04:48:10;;;;;;;;;24.50;22.00;;;;;21.92;35.49;101942.89;110203;1264;19260;-49
2022/03/25 04:50:38;;;;;;;;;22.00;21.00;;;;;21.92;35.86;101946.38;110171;1264;18249;-46
2022/03/25 04:53:05;;;;;;;;;25.00;22.00;;;;;21.92;35.71;101948.86;110156;1265;18641;-49
2022/03/25 04:55:33;;;;;;;;;25.33;22.00;;;;;21.91;35.89;101944.08;110210;1265;18759;-48
2022/03/25 04:58:00;;;;;;;;;23.00;21.67;;;;;21.91;35.79;101942.51;110173;1265;18257;-49
2022/03/25 05:00:27;;;;;;;;;21.00;20.00;;;;;21.92;35.85;101948.21;110237;1265;19406;-48
2022/03/25 05:02:54;;;;;;;;;25.00;22.50;;;;;21.91;35.52;101948.80;110173;1264;20892;-51
2022/03/25 05:05:22;;;;;;;;;22.00;19.33;;;;;21.92;35.79;101954.59;110183;1264;22327;-48
2022/03/25 05:07:50;;;;;;;;;21.00;20.00;;;;;21.93;35.83;101954.29;110273;1264;18707;-49
2022/03/25 05:10:17;;;;;;;;;26.00;20.00;;;;;21.93;35.68;101953.57;110271;1264;18824;-49
2022/03/25 05:12:44;;;;;;;;;24.67;22.33;;;;;21.92;35.70;101951.80;110242;1264;22062;-48
2022/03/25 05:15:11;;;;;;;;;24.33;22.00;;;;;21.93;35.54;101953.18;110234;1264;18994;-48
2022/03/25 05:17:39;;;;;;;;;21.67;19.33;;;;;21.92;35.86;101954.52;110139;1264;20905;-48
2022/03/25 05:20:06;;;;;;;;;23.00;21.00;;;;;21.94;35.65;101954.93;110244;1265;18353;-48
2022/03/25 05:22:33;;;;;;;;;24.00;22.00;;;;;21.94;35.74;101955.95;110188;1264;18863;-48
2022/03/25 05:25:00;;;;;;;;;28.00;22.00;;;;;21.96;35.56;101960.00;110196;1264;18678;-51
2022/03/25 05:27:28;;;;;;;;;24.00;21.00;;;;;21.96;35.64;101962.46;110217;1265;18253;-49
2022/03/25 05:29:55;;;;;;;;;27.00;21.00;;;;;21.98;35.67;101959.55;110206;1265;18683;-49
2022/03/25 05:32:22;;;;;;;;;22.67;20.00;;;;;21.99;35.36;101963.81;110159;1264;18989;-49
2022/03/25 05:34:49;;;;;;;;;24.33;22.00;;;;;22.01;35.67;101964.20;110286;1264;18543;-49
2022/03/25 05:37:16;;;;;;;;;24.67;22.00;;;;;22.03;35.48;101965.05;110201;1265;19024;-48
2022/03/25 05:39:45;;;;;;;;;23.00;20.50;;;;;22.05;35.45;101966.30;110174;1264;18870;-48
2022/03/25 05:42:12;;;;;;;;;22.00;20.33;;;;;22.07;35.44;101968.33;110208;1265;18300;-48
2022/03/25 05:44:39;;;;;;;;;25.33;22.33;;;;;22.09;35.55;101973.58;110181;1265;18857;-48
2022/03/25 05:47:06;;;;;;;;;26.67;24.33;;;;;22.10;35.29;101971.45;110217;1265;19155;-48
2022/03/25 05:49:34;;;;;;;;;23.50;21.00;;;;;22.11;35.57;101974.65;110140;1263;18236;-49
2022/03/25 05:52:01;;;;;;;;;22.33;21.67;;;;;22.13;35.31;101975.72;110170;1264;18843;-50
2022/03/25 05:54:28;;;;;;;;;24.67;22.00;;;;;22.17;35.45;101974.77;110156;1264;22551;-50
2022/03/25 05:56:55;;;;;;;;;23.67;19.33;;;;;22.18;35.52;101972.85;110225;1265;21828;-50
2022/03/25 05:59:22;;;;;;;;;22.00;19.00;;;;;22.24;35.43;101972.80;110120;1265;19011;-51
2022/03/25 06:01:50;;;;;;;;;27.33;22.33;;;;;22.32;35.75;101977.40;110216;1264;19245;-53
2022/03/25 06:04:17;;;;;;;;;23.33;23.00;;;;;22.37;36.35;101980.89;110175;1264;18283;-53
2022/03/25 06:06:45;;;;;;;;;26.00;24.33;;;;;22.42;36.62;101982.61;110157;1265;19145;-50
2022/03/25 06:09:12;;;;;;;;;29.67;26.33;;;;;22.43;36.63;101982.14;110206;1264;20115;-51
2022/03/25 06:11:39;;;;;;;;;28.67;23.67;;;;;22.46;36.67;101986.52;110154;1264;18387;-51
2022/03/25 06:14:06;;;;;;;;;30.33;26.33;;;;;22.46;36.85;101984.03;110219;1264;20258;-51
2022/03/25 06:16:33;;;;;;;;;28.33;25.33;;;;;22.43;36.76;101984.70;110212;1265;18686;-51
2022/03/25 06:19:01;;;;;;;;;22.67;22.00;;;;;22.41;36.97;101991.20;110145;1265;23513;-49
2022/03/25 06:21:28;;;;;;;;;24.50;22.00;;;;;22.43;36.82;101992.52;110189;1264;18712;-53
2022/03/25 06:23:55;;;;;;;;;25.00;23.00;;;;;22.44;36.83;101988.39;110166;1264;18905;-51
2022/03/25 06:26:22;;;;;;;;;26.00;23.33;;;;;22.45;36.97;101989.55;110220;1264;18256;-51
2022/03/25 06:28:49;;;;;;;;;27.33;23.00;;;;;22.47;36.86;101986.40;110201;1265;18980;-54
2022/03/25 06:31:17;;;;;;;;;24.00;23.33;;;;;22.49;36.96;101982.56;110211;1265;18788;-51
2022/03/25 06:33:44;;;;;;;;;28.00;23.00;;;;;22.50;36.94;101979.73;110198;1264;19345;-50
2022/03/25 06:36:13;;;;;;;;;22.67;19.67;;;;;22.51;36.88;101983.29;110224;1264;20956;-50
2022/03/25 06:38:40;;;;;;;;;26.00;23.67;;;;;22.52;37.23;101984.45;110231;1264;18904;-50
2022/03/25 06:41:07;;;;;;;;;27.50;22.50;;;;;22.53;36.76;101983.60;110159;1265;18547;-50
2022/03/25 06:43:35;;;;;;;;;23.00;21.00;;;;;22.55;36.93;101987.27;110249;1264;19852;-49
2022/03/25 06:46:02;;;;;;;;;23.00;21.33;;;;;22.56;37.10;101989.17;110180;1264;18747;-50
2022/03/25 06:48:29;;;;;;;;;24.00;22.67;;;;;22.58;37.08;101987.71;110197;1264;18338;-51
2022/03/25 06:50:56;;;;;;;;;23.33;22.00;;;;;22.61;37.14;101986.42;110220;1264;18902;-50
2022/03/25 06:53:24;;;;;;;;;27.33;24.00;;;;;22.62;37.21;101986.11;110159;1264;18780;-49
2022/03/25 06:55:51;;;;;;;;;29.50;22.00;;;;;22.65;37.10;101986.31;110165;1265;20340;-51
2022/03/25 06:58:18;;;;;;;;;26.00;23.00;;;;;22.69;37.10;101988.20;110209;1265;22060;-51
2022/03/25 07:00:45;;;;;;;;;27.00;23.00;;;;;22.70;37.06;101985.72;110213;1264;18771;-49
2022/03/25 07:03:13;;;;;;;;;23.00;20.50;;;;;22.75;37.17;101989.08;110172;1264;23204;-47
2022/03/25 07:05:40;;;;;;;;;24.00;22.00;;;;;22.76;37.07;101991.71;110256;1264;22317;-50
2022/03/25 07:08:09;;;;;;;;;26.33;23.00;;;;;22.74;36.99;101994.23;110196;1264;18778;-49
2022/03/25 07:10:36;;;;;;;;;25.67;22.67;;;;;22.77;37.18;101989.39;110242;1264;18279;-51
2022/03/25 07:13:03;;;;;;;;;21.67;18.33;;;;;22.83;37.24;101994.20;110126;1264;19317;-52
2022/03/25 07:15:30;;;;;;;;;28.00;23.50;;;;;22.87;37.26;101996.73;110171;1264;23248;-52
2022/03/25 07:17:58;;;;;;;;;24.00;22.33;;;;;22.91;37.63;101996.98;110208;1265;18338;-58
2022/03/25 07:20:26;;;;;;;;;23.00;20.00;;;;;22.98;37.86;101999.20;110212;1264;18804;-54
2022/03/25 07:22:54;;;;;;;;;23.67;21.33;;;;;23.14;38.62;102005.14;110185;1265;18982;-50
2022/03/25 07:25:21;;;;;;;;;24.00;21.33;;;;;23.33;38.40;102009.84;110055;1264;18489;-49
2022/03/25 07:27:48;;;;;;;;;21.67;19.00;;;;;23.32;38.04;102012.88;110142;1265;21816;-49
2022/03/25 07:30:15;;;;;;;;;45.00;36.50;;;;;23.16;37.48;102010.81;110162;1264;18684;-49
2022/03/25 07:32:43;;;;;;;;;30.50;29.00;;;;;22.98;36.89;102013.97;110223;1264;18341;-51
2022/03/25 07:35:10;;;;;;;;;30.33;28.00;;;;;22.89;37.18;102016.85;110262;1264;18700;-48
2022/03/25 07:37:37;;;;;;;;;36.67;34.67;;;;;22.83;37.02;102015.11;110163;1264;22015;-52
2022/03/25 07:40:05;;;;;;;;;47.00;39.00;;;;;22.75;35.66;102020.58;110049;1266;19032;-52
2022/03/25 07:42:32;;;;;;;;;53.67;41.67;;;;;22.69;34.78;102013.48;110071;1265;19375;-51
2022/03/25 07:45:01;;;;;;;;;48.00;40.00;;;;;22.66;34.05;102018.38;110204;1264;18696;-49
2022/03/25 07:47:32;;;;;;;;;53.33;42.00;;;;;22.64;34.25;102018.38;110211;1265;18337;-49
2022/03/25 07:49:59;;;;;;;;;46.33;39.67;;;;;22.69;33.98;102022.81;110190;1264;20321;-49
2022/03/25 07:52:26;;;;;;;;;50.33;41.33;;;;;22.72;33.96;102020.84;110034;1264;245703;-51
2022/03/25 07:54:53;;;;;;;;;50.50;42.00;;;;;22.75;34.42;102016.58;110200;1265;20058;-51
2022/03/25 07:57:21;;;;;;;;;50.33;41.33;;;;;22.76;33.64;102020.82;110156;1264;18702;-51
2022/03/25 07:59:48;;;;;;;;;58.67;45.00;;;;;22.74;33.54;102020.98;110176;1264;18910;-50
2022/03/25 08:02:15;;;;;;;;;58.67;45.33;;;;;22.65;32.34;102022.10;110196;1264;22113;-51
2022/03/25 08:04:42;;;;;;;;;58.33;46.00;;;;;22.63;32.06;102022.64;110214;1264;18714;-50
2022/03/25 08:07:10;;;;;;;;;58.50;46.00;;;;;22.62;31.88;102022.08;110193;1264;18730;-51
2022/03/25 08:09:37;;;;;;;;;52.00;43.50;;;;;22.50;31.69;102023.11;110232;1265;18253;-50
2022/03/25 08:12:05;;;;;;;;;49.00;41.50;;;;;22.47;31.40;102024.69;110217;1264;21746;-47
2022/03/25 08:14:32;;;;;;;;;61.00;44.67;;;;;22.45;31.34;102025.48;110171;1264;18784;-51
2022/03/25 08:16:59;;;;;;;;;50.00;42.00;;;;;22.51;31.93;102019.77;110053;1265;20655;-50
2022/03/25 08:19:27;;;;;;;;;51.33;43.00;;;;;22.63;32.07;102020.70;109982;1264;18994;-49
2022/03/25 08:21:54;;;;;;;;;77.50;55.00;;;;;22.70;32.09;102020.50;109963;1264;21653;-49
2022/03/25 08:29:51;;;;;;;;;202.75;152.50;;;;;22.83;32.35;102023.71;110103;1264;19028;-51
2022/03/25 08:32:19;;;;;;;;;242.50;177.75;;;;;22.85;32.70;102028.27;110167;1265;18731;-52
2022/03/25 08:34:46;;;;;;;;;279.25;195.75;;;;;22.87;33.07;102022.36;110154;1265;18707;-49
2022/03/25 08:37:14;;;;;;;;;220.50;163.00;;;;;22.92;33.28;102027.15;110165;1264;19451;-48
2022/03/25 08:39:41;;;;;;;;;188.50;134.00;;;;;22.97;33.43;102030.44;110101;1264;19102;-51
2022/03/25 08:42:10;;;;;;;;;161.25;125.50;;;;;23.01;33.59;102027.36;110154;1264;18915;-50
2022/03/25 08:44:37;;;;;;;;;167.50;123.75;;;;;23.03;33.89;102030.59;110171;1264;19227;-50
2022/03/25 08:47:04;;;;;;;;;148.75;112.25;;;;;23.08;34.22;102032.05;110168;1265;18847;-49
2022/03/25 08:49:33;;;;;;;;;149.33;102.33;;;;;23.09;34.82;102036.14;109974;1265;19016;-49
2022/03/25 08:52:00;;;;;;;;;130.75;102.00;;;;;23.11;34.96;102032.48;110063;1264;19275;-51
2022/03/25 08:54:28;;;;;;;;;129.00;102.25;;;;;23.11;35.14;102029.02;110200;1264;20063;-47
2022/03/25 08:56:55;;;;;;;;;122.75;94.50;;;;;23.09;35.06;102024.48;110154;1264;19096;-50
2022/03/25 08:59:22;;;;;;;;;118.33;88.67;;;;;23.08;35.21;102023.34;110224;1264;19059;-53
2022/03/25 09:01:49;;;;;;;;;109.33;87.00;;;;;23.10;35.47;102021.84;110227;1264;20095;-51
2022/03/25 09:04:17;;;;;;;;;102.00;79.00;;;;;23.12;35.50;102016.68;110137;1265;18796;-48
2022/03/25 09:06:44;;;;;;;;;103.33;75.33;;;;;23.13;35.65;102016.77;110159;1264;20522;-51
2022/03/25 09:09:11;;;;;;;;;105.00;74.67;;;;;23.10;35.53;102013.64;110209;1265;19589;-49
2022/03/25 09:11:40;;;;;;;;;92.67;68.33;;;;;23.07;35.55;102016.25;110076;1264;18700;-49
2022/03/25 09:14:07;;;;;;;;;79.67;59.00;;;;;23.06;34.73;102013.65;110105;1265;19126;-49
2022/03/25 09:16:34;;;;;;;;;77.67;55.33;;;;;22.91;32.58;102015.02;110175;1265;18517;-52
2022/03/25 09:19:02;;;;;;;;;68.33;54.33;;;;;22.78;31.75;102014.70;110111;1264;27252;-49
2022/03/25 09:21:29;;;;;;;;;67.00;51.00;;;;;22.64;30.76;102008.30;110027;1266;19066;-48
2022/03/25 09:23:57;;;;;;;;;64.50;49.50;;;;;22.54;30.28;102003.54;110050;1267;18192;-50
2022/03/25 09:26:25;;;;;;;;;61.33;49.00;;;;;22.47;30.20;102003.92;110045;1267;18934;-48
2022/03/25 09:28:52;;;;;;;;;70.67;50.33;;;;;22.43;30.23;102003.62;110165;1264;18766;-49
2022/03/25 09:31:19;;;;;;;;;63.00;47.33;;;;;22.40;30.25;101998.45;110155;1264;18259;-48
2022/03/25 09:33:47;;;;;;;;;65.00;48.00;;;;;22.38;30.18;101995.34;110190;1264;20517;-51
2022/03/25 09:36:14;;;;;;;;;67.67;49.00;;;;;22.39;30.01;101992.75;110159;1264;18837;-55
2022/03/25 09:38:41;;;;;;;;;60.00;47.00;;;;;22.35;29.97;101993.91;109966;1265;18343;-53
2022/03/25 09:41:08;;;;;;;;;61.00;46.50;;;;;22.37;30.13;101992.98;109965;1266;18726;-48
2022/03/25 09:43:37;;;;;;;;;57.00;45.00;;;;;22.43;30.24;101992.32;109985;1267;18689;-46
2022/03/25 09:46:05;;;;;;;;;55.67;45.33;;;;;22.49;30.27;101991.14;110007;1267;18298;-50
2022/03/25 09:48:32;;;;;;;;;60.33;46.33;;;;;22.51;30.17;101988.98;109985;1268;18749;-48
2022/03/25 09:50:59;;;;;;;;;57.33;46.00;;;;;22.52;30.05;101986.47;110022;1265;19079;-52
2022/03/25 09:53:26;;;;;;;;;63.67;45.00;;;;;22.53;29.89;101985.25;110029;1265;19362;-50
2022/03/25 09:55:54;;;;;;;;;53.00;43.00;;;;;22.55;29.98;101984.22;110043;1266;19308;-49
2022/03/25 09:58:23;;;;;;;;;59.00;44.50;;;;;22.56;30.49;101980.23;109995;1268;18701;-51
2022/03/25 10:00:50;;;;;;;;;52.00;40.50;;;;;22.53;30.18;101981.61;110056;1267;22713;-50
2022/03/25 10:03:18;;;;;;;;;43.67;40.33;;;;;22.61;30.73;101975.71;110074;1266;18879;-50
2022/03/25 10:05:45;;;;;;;;;46.33;38.67;;;;;22.72;31.06;101978.90;110099;1265;18895;-50
2022/03/25 10:08:12;;;;;;;;;44.00;37.33;;;;;22.81;31.62;101979.30;110098;1267;18427;-49
2022/03/25 10:10:40;;;;;;;;;45.67;39.00;;;;;22.86;32.08;101980.41;110145;1267;18804;-49
2022/03/25 10:13:08;;;;;;;;;49.00;37.00;;;;;22.91;32.53;101979.62;110094;1267;18818;-50
2022/03/25 10:15:37;;;;;;;;;46.67;39.33;;;;;22.97;33.19;101983.63;110120;1265;18411;-51
2022/03/25 10:18:04;;;;;;;;;48.00;40.00;;;;;22.97;33.48;101980.55;110084;1267;23213;-50
2022/03/25 10:20:31;;;;;;;;;49.50;39.50;;;;;22.89;33.36;101981.52;110144;1265;19264;-50
2022/03/25 10:22:59;;;;;;;;;159.50;131.00;;;;;22.82;33.46;101978.29;110114;1266;18348;-50
2022/03/25 10:25:26;;;;;;;;;135.00;114.50;;;;;22.76;33.01;101975.99;110137;1265;18750;-49
2022/03/25 10:27:53;;;;;;;;;115.25;96.00;;;;;22.74;33.21;101976.77;110084;1265;19287;-49
2022/03/25 10:30:20;;;;;;;;;117.00;100.25;;;;;22.75;33.31;101974.82;110080;1266;18792;-52
2022/03/25 10:32:47;;;;;;;;;127.67;100.33;;;;;22.76;33.33;101976.33;110012;1265;18723;-50
2022/03/25 10:35:15;;;;;;;;;101.00;83.67;;;;;22.75;33.47;101973.00;110115;1267;22052;-50
2022/03/25 10:37:42;;;;;;;;;99.50;80.50;;;;;22.73;33.27;101974.45;110141;1266;21733;-50
2022/03/25 10:40:10;;;;;;;;;85.33;61.33;;;;;22.73;33.45;101971.88;110150;1265;18770;-50
2022/03/25 10:42:37;;;;;;;;;83.33;64.00;;;;;22.72;33.16;101968.80;110144;1264;18768;-49
2022/03/25 10:45:05;;;;;;;;;71.33;53.67;;;;;22.69;32.74;101973.21;110115;1267;18571;-49
2022/03/25 10:47:32;;;;;;;;;66.33;50.00;;;;;22.60;32.13;101969.05;110156;1268;19577;-48
2022/03/25 10:49:59;;;;;;;;;64.00;50.00;;;;;22.61;31.54;101968.76;110069;1267;22625;-52
2022/03/25 10:52:26;;;;;;;;;59.67;48.33;;;;;22.59;31.60;101967.34;110117;1265;18292;-50
2022/03/25 10:54:53;;;;;;;;;60.00;47.50;;;;;22.59;31.78;101963.55;109988;1268;18845;-52
2022/03/25 10:57:21;;;;;;;;;51.67;41.33;;;;;22.59;31.94;101965.87;110071;1265;18884;-50
2022/03/25 10:59:48;;;;;;;;;51.33;42.33;;;;;22.56;31.43;101965.50;110051;1265;18383;-49
2022/03/25 11:02:15;;;;;;;;;54.33;43.67;;;;;22.53;30.83;101965.95;110102;1265;23912;-51
2022/03/25 11:04:43;;;;;;;;;53.67;42.33;;;;;22.52;30.74;101961.52;110076;1267;19032;-48